createdAt,value
2022-10-07T00:01:05.155Z,96193.72
2022-10-07T00:03:32.885Z,96191.00
2022-10-07T00:06:05.968Z,96188.34
2022-10-07T00:08:35.935Z,96189.84
2022-10-07T00:11:11.582Z,96190.41
2022-10-07T00:13:40.596Z,96189.91
2022-10-07T00:16:13.524Z,96199.38
2022-10-07T00:18:41.479Z,96191.22
2022-10-07T00:21:11.408Z,96188.91
2022-10-07T00:23:39.239Z,96193.53
2022-10-07T00:26:08.005Z,96170.22
2022-10-07T00:28:35.452Z,96181.38
2022-10-07T00:31:06.220Z,96174.56
2022-10-07T00:33:37.631Z,96182.41
2022-10-07T00:36:09.611Z,96180.78
2022-10-07T00:38:36.477Z,96167.53
2022-10-07T00:41:03.465Z,96169.41
2022-10-07T00:43:31.974Z,96178.09
2022-10-07T00:46:11.265Z,96164.66
2022-10-07T00:48:39.786Z,96178.09
2022-10-07T00:51:09.377Z,96176.53
2022-10-07T00:53:38.962Z,96164.25
2022-10-07T00:56:08.124Z,96153.66
2022-10-07T00:58:37.730Z,96159.19
2022-10-07T01:01:06.866Z,96173.81
2022-10-07T01:03:37.402Z,96163.97
2022-10-07T01:06:05.186Z,96164.53
2022-10-07T01:08:33.538Z,96168.44
2022-10-07T01:11:31.943Z,96172.53
2022-10-07T01:14:12.834Z,96166.16
2022-10-07T01:16:42.734Z,96168.97
2022-10-07T01:19:36.352Z,96162.75
2022-10-07T01:22:26.584Z,96154.91
2022-10-07T01:25:22.923Z,96164.47
2022-10-07T01:28:02.266Z,96169.19
2022-10-07T01:30:33.366Z,96154.94
2022-10-07T01:33:05.049Z,96157.72
2022-10-07T01:35:36.673Z,96152.00
2022-10-07T01:38:07.179Z,96157.47
2022-10-07T01:40:42.439Z,96168.47
2022-10-07T01:43:09.805Z,96152.50
2022-10-07T01:45:41.355Z,96148.88
2022-10-07T01:48:08.787Z,96158.81
2022-10-07T01:50:37.339Z,96155.34
2022-10-07T01:53:34.555Z,96154.72
2022-10-07T01:56:12.566Z,96154.53
2022-10-07T01:59:02.621Z,96148.50
2022-10-07T02:01:50.294Z,96149.38
2022-10-07T02:04:42.280Z,96153.78
2022-10-07T02:07:30.460Z,96139.28
2022-10-07T02:10:06.448Z,96151.22
2022-10-07T02:12:53.568Z,96156.97
2022-10-07T02:15:27.825Z,96157.56
2022-10-07T02:18:00.767Z,96161.81
2022-10-07T02:20:32.071Z,96150.16
2022-10-07T02:23:02.358Z,96151.22
2022-10-07T02:25:33.886Z,96157.31
2022-10-07T02:28:05.534Z,96174.34
2022-10-07T02:30:36.061Z,96166.13
2022-10-07T02:33:06.541Z,96171.41
2022-10-07T02:35:40.492Z,96166.94
2022-10-07T02:38:11.419Z,96163.91
2022-10-07T02:40:54.413Z,96165.19
2022-10-07T02:43:40.228Z,96168.53
2022-10-07T02:46:20.284Z,96165.69
2022-10-07T02:49:11.095Z,96165.69
2022-10-07T02:51:55.683Z,96160.16
2022-10-07T02:54:30.488Z,96164.03
2022-10-07T02:57:00.303Z,96147.44
2022-10-07T02:59:28.592Z,96166.66
2022-10-07T03:02:00.477Z,96184.75
2022-10-07T03:04:28.108Z,96179.66
2022-10-07T03:06:55.801Z,96170.88
2022-10-07T03:09:25.164Z,96173.09
2022-10-07T03:11:51.991Z,96171.66
2022-10-07T03:14:19.074Z,96172.03
2022-10-07T03:16:46.062Z,96170.19
2022-10-07T03:19:12.936Z,96165.63
2022-10-07T03:21:50.051Z,96167.53
2022-10-07T03:24:18.449Z,96163.53
2022-10-07T03:26:47.253Z,96177.94
2022-10-07T03:29:15.120Z,96159.94
2022-10-07T03:31:42.813Z,96166.75
2022-10-07T03:34:10.928Z,96176.69
2022-10-07T03:36:39.363Z,96164.69
2022-10-07T03:39:07.895Z,96142.94
2022-10-07T03:41:37.026Z,96147.13
2022-10-07T03:44:05.659Z,96154.00
2022-10-07T03:46:32.932Z,96161.28
2022-10-07T03:49:00.476Z,96163.31
2022-10-07T03:51:28.965Z,96164.38
2022-10-07T03:53:57.296Z,96161.44
2022-10-07T03:56:25.967Z,96164.28
2022-10-07T03:58:52.803Z,96162.31
2022-10-07T04:01:19.800Z,96167.00
2022-10-07T04:03:50.079Z,96169.69
2022-10-07T04:06:18.316Z,96172.19
2022-10-07T04:08:45.692Z,96159.88
2022-10-07T04:11:13.179Z,96174.59
2022-10-07T04:13:42.723Z,96170.50
2022-10-07T04:16:11.080Z,96168.78
2022-10-07T04:18:38.588Z,96144.53
2022-10-07T04:21:06.622Z,96169.13
2022-10-07T04:23:35.240Z,96157.25
2022-10-07T04:26:06.631Z,96168.97
2022-10-07T04:28:33.635Z,96168.03
2022-10-07T04:31:08.862Z,96161.56
2022-10-07T04:33:41.056Z,96162.69
2022-10-07T04:36:11.110Z,96159.44
2022-10-07T04:38:50.394Z,96173.03
2022-10-07T04:41:20.609Z,96175.56
2022-10-07T04:43:56.669Z,96166.25
2022-10-07T04:46:25.494Z,96163.47
2022-10-07T04:49:00.027Z,96156.41
2022-10-07T04:51:28.040Z,96151.50
2022-10-07T04:53:58.047Z,96156.63
2022-10-07T04:56:33.399Z,96153.78
2022-10-07T04:59:03.327Z,96157.91
2022-10-07T05:01:30.760Z,96165.84
2022-10-07T05:03:59.888Z,96165.16
2022-10-07T05:06:27.372Z,96170.63
2022-10-07T05:08:54.315Z,96170.16
2022-10-07T05:11:22.720Z,96177.94
2022-10-07T05:13:56.669Z,96173.81
2022-10-07T05:16:24.865Z,96174.31
2022-10-07T05:18:51.847Z,96180.28
2022-10-07T05:21:18.948Z,96187.28
2022-10-07T05:23:48.812Z,96180.38
2022-10-07T05:26:21.253Z,96175.97
2022-10-07T05:28:53.272Z,96183.34
2022-10-07T05:31:27.743Z,96191.25
2022-10-07T05:33:59.579Z,96192.28
2022-10-07T05:36:27.209Z,96197.84
2022-10-07T05:39:00.004Z,96199.47
2022-10-07T05:41:45.266Z,96203.75
2022-10-07T05:44:17.674Z,96211.94
2022-10-07T05:46:45.843Z,96208.88
2022-10-07T05:49:14.096Z,96202.06
2022-10-07T05:51:41.637Z,96204.63
2022-10-07T05:54:08.561Z,96212.78
2022-10-07T05:56:39.757Z,96212.59
2022-10-07T05:59:06.749Z,96212.72
2022-10-07T06:01:34.290Z,96216.44
2022-10-07T06:04:08.190Z,96219.63
2022-10-07T06:06:38.762Z,96207.84
2022-10-07T06:09:27.772Z,96211.81
2022-10-07T06:12:14.339Z,96215.53
2022-10-07T06:14:42.335Z,96209.88
2022-10-07T06:17:10.007Z,96214.34
2022-10-07T06:19:38.188Z,96217.38
2022-10-07T06:22:05.903Z,96221.84
2022-10-07T06:24:35.301Z,96211.34
2022-10-07T06:27:02.978Z,96223.41
2022-10-07T06:29:30.939Z,96213.88
2022-10-07T06:31:58.418Z,96219.47
2022-10-07T06:34:25.726Z,96214.25
2022-10-07T06:36:53.835Z,96214.16
2022-10-07T06:39:20.540Z,96213.31
2022-10-07T06:41:47.991Z,96214.88
2022-10-07T06:44:31.439Z,96226.44
2022-10-07T06:46:59.000Z,96211.19
2022-10-07T06:49:26.168Z,96228.03
2022-10-07T06:51:54.358Z,96228.28
2022-10-07T06:54:21.050Z,96227.06
2022-10-07T06:56:48.019Z,96235.75
2022-10-07T06:59:14.844Z,96229.38
2022-10-07T07:01:54.826Z,96234.97
2022-10-07T07:04:22.977Z,96239.31
2022-10-07T07:06:49.826Z,96235.75
2022-10-07T07:09:16.571Z,96236.63
2022-10-07T07:11:45.590Z,96237.66
2022-10-07T07:14:25.913Z,96222.56
2022-10-07T07:17:06.471Z,96222.03
2022-10-07T07:19:33.243Z,96225.69
2022-10-07T07:22:00.608Z,96223.88
2022-10-07T07:24:28.602Z,96218.84
2022-10-07T07:26:56.265Z,96224.19
2022-10-07T07:29:27.528Z,96215.41
2022-10-07T07:32:00.037Z,96223.03
2022-10-07T07:34:30.368Z,96204.00
2022-10-07T07:36:57.575Z,96214.63
2022-10-07T07:39:29.829Z,96208.00
2022-10-07T07:42:03.042Z,96211.13
2022-10-07T07:44:34.084Z,96187.56
2022-10-07T07:47:04.192Z,96210.41
2022-10-07T07:49:32.909Z,96195.47
2022-10-07T07:52:00.692Z,96203.13
2022-10-07T07:54:32.341Z,96201.63
2022-10-07T07:56:59.733Z,96187.66
2022-10-07T07:59:31.218Z,96190.03
2022-10-07T08:02:00.498Z,96174.03
2022-10-07T08:04:27.209Z,96180.03
2022-10-07T08:06:55.550Z,96185.00
2022-10-07T08:09:24.552Z,96175.88
2022-10-07T08:11:52.901Z,96171.81
2022-10-07T08:14:19.771Z,96172.44
2022-10-07T08:16:50.332Z,96169.47
2022-10-07T08:19:18.056Z,96156.81
2022-10-07T08:21:45.152Z,96161.31
2022-10-07T08:24:17.332Z,96159.47
2022-10-07T08:26:44.814Z,96162.94
2022-10-07T08:29:15.276Z,96151.59
2022-10-07T08:31:42.732Z,96148.69
2022-10-07T08:34:11.035Z,96144.94
2022-10-07T08:36:37.875Z,96138.94
2022-10-07T08:39:06.350Z,96127.88
2022-10-07T08:42:13.599Z,96127.13
2022-10-07T08:44:42.855Z,96134.03
2022-10-07T08:47:15.529Z,96128.31
2022-10-07T08:50:19.193Z,96124.63
2022-10-07T08:53:08.491Z,96122.00
2022-10-07T08:55:41.168Z,96115.94
2022-10-07T08:58:38.315Z,96118.53
2022-10-07T09:01:17.732Z,96110.81
2022-10-07T09:03:51.570Z,96103.88
2022-10-07T09:06:35.962Z,96106.94
2022-10-07T09:09:11.519Z,96092.94
2022-10-07T09:11:42.095Z,96100.22
2022-10-07T09:14:27.911Z,96093.44
2022-10-07T09:16:58.593Z,96084.78
2022-10-07T09:19:41.901Z,96079.97
2022-10-07T09:22:19.543Z,96074.16
2022-10-07T09:24:49.144Z,96075.53
2022-10-07T09:27:20.201Z,96067.66
2022-10-07T09:29:47.375Z,96067.34
2022-10-07T09:32:17.399Z,96069.47
2022-10-07T09:34:45.921Z,96073.91
2022-10-07T09:37:13.023Z,96070.94
2022-10-07T09:39:40.980Z,96069.47
2022-10-07T09:42:27.081Z,96064.56
2022-10-07T09:44:55.815Z,96063.72
2022-10-07T09:47:29.283Z,96062.53
2022-10-07T09:49:59.791Z,96072.50
2022-10-07T09:52:29.668Z,96056.13
2022-10-07T09:55:17.572Z,96051.66
2022-10-07T09:57:59.639Z,96058.16
2022-10-07T10:00:27.844Z,96050.28
2022-10-07T10:03:05.506Z,96032.63
2022-10-07T10:05:35.360Z,96039.09
2022-10-07T10:08:06.831Z,96034.06
2022-10-07T10:10:35.436Z,96034.75
2022-10-07T10:13:05.247Z,96022.84
2022-10-07T10:15:44.961Z,96026.66
2022-10-07T10:18:34.159Z,96017.47
2022-10-07T10:21:27.446Z,96014.34
2022-10-07T10:23:59.144Z,96006.13
2022-10-07T10:26:41.979Z,96010.22
2022-10-07T10:29:34.649Z,96012.31
2022-10-07T10:32:01.335Z,95999.41
2022-10-07T10:34:46.865Z,95999.16
2022-10-07T10:37:38.968Z,95987.63
2022-10-07T10:40:35.205Z,95997.00
2022-10-07T10:43:30.293Z,95997.94
2022-10-07T10:46:19.048Z,95994.16
2022-10-07T10:49:06.914Z,95982.19
2022-10-07T10:51:42.812Z,95982.19
2022-10-07T10:54:17.776Z,95978.00
2022-10-07T10:56:48.326Z,95972.41
2022-10-07T10:59:33.504Z,95969.72
2022-10-07T11:02:18.938Z,95951.69
2022-10-07T11:04:51.741Z,95939.91
2022-10-07T11:07:24.918Z,95946.31
2022-10-07T11:09:56.567Z,95937.97
2022-10-07T11:12:28.908Z,95941.69
2022-10-07T11:15:02.443Z,95941.50
2022-10-07T11:17:35.845Z,95932.31
2022-10-07T11:20:21.383Z,95934.09
2022-10-07T11:22:56.704Z,95932.91
2022-10-07T11:25:29.316Z,95939.72
2022-10-07T11:28:06.369Z,95929.44
2022-10-07T11:30:45.096Z,95930.56
2022-10-07T11:33:20.063Z,95923.44
2022-10-07T11:35:55.474Z,95923.69
2022-10-07T11:38:27.827Z,95918.56
2022-10-07T11:41:21.476Z,95908.63
2022-10-07T11:43:55.793Z,95911.06
2022-10-07T11:46:33.909Z,95915.72
2022-10-07T11:49:06.969Z,95906.88
2022-10-07T11:51:56.526Z,95900.34
2022-10-07T11:54:27.678Z,95900.53
2022-10-07T11:57:00.319Z,95896.63
2022-10-07T11:59:34.002Z,95891.72
2022-10-07T12:02:01.995Z,95889.75
2022-10-07T12:04:35.441Z,95896.06
2022-10-07T12:07:37.616Z,95894.75
2022-10-07T12:10:04.945Z,95887.34
2022-10-07T12:12:46.377Z,95889.78
2022-10-07T12:15:44.825Z,95886.69
2022-10-07T12:18:26.153Z,95891.97
2022-10-07T12:20:53.190Z,95886.63
2022-10-07T12:23:20.282Z,95893.78
2022-10-07T12:25:56.988Z,95893.78
2022-10-07T12:28:46.016Z,95889.38
2022-10-07T12:31:15.789Z,95886.41
2022-10-07T12:33:45.485Z,95882.34
2022-10-07T12:36:21.466Z,95887.03
2022-10-07T12:38:57.489Z,95889.63
2022-10-07T12:41:26.380Z,95886.63
2022-10-07T12:44:06.879Z,95868.47
2022-10-07T12:46:42.849Z,95870.59
2022-10-07T12:49:34.312Z,95869.41
2022-10-07T12:52:06.781Z,95868.66
2022-10-07T12:54:41.569Z,95866.31
2022-10-07T12:57:13.762Z,95867.88
2022-10-07T13:00:03.959Z,95857.84
2022-10-07T13:02:49.421Z,95868.56
2022-10-07T13:05:53.801Z,95859.78
2022-10-07T13:08:26.840Z,95854.47
2022-10-07T13:11:30.925Z,95848.66
2022-10-07T13:14:16.216Z,95853.53
2022-10-07T13:16:51.489Z,95852.75
2022-10-07T13:19:40.157Z,95842.34
2022-10-07T13:22:14.659Z,95839.47
2022-10-07T13:24:47.280Z,95848.09
2022-10-07T13:27:25.096Z,95852.88
2022-10-07T13:29:53.245Z,95848.75
2022-10-07T13:32:29.776Z,95837.38
2022-10-07T13:34:58.991Z,95846.97
2022-10-07T13:37:28.756Z,95852.47
2022-10-07T13:40:19.453Z,95848.41
2022-10-07T13:42:53.363Z,95849.66
2022-10-07T13:45:20.163Z,95848.09
2022-10-07T13:47:47.093Z,95847.91
2022-10-07T13:50:21.144Z,95844.78
2022-10-07T13:52:49.903Z,95840.53
2022-10-07T13:55:25.940Z,95836.31
2022-10-07T13:57:57.241Z,95831.53
2022-10-07T14:00:25.277Z,95828.97
2022-10-07T14:02:52.741Z,95827.31
2022-10-07T14:05:27.772Z,95835.59
2022-10-07T14:07:56.819Z,95833.56
2022-10-07T14:10:30.635Z,95826.91
2022-10-07T14:13:00.530Z,95835.31
2022-10-07T14:15:33.777Z,95819.28
2022-10-07T14:18:13.312Z,95832.50
2022-10-07T14:20:45.241Z,95826.78
2022-10-07T14:23:31.143Z,95823.69
2022-10-07T14:26:06.758Z,95838.16
2022-10-07T14:28:35.545Z,95818.53
2022-10-07T14:31:29.030Z,95831.72
2022-10-07T14:34:27.981Z,95830.06
2022-10-07T14:37:03.633Z,95835.16
2022-10-07T14:39:39.562Z,95827.31
2022-10-07T14:42:13.868Z,95831.56
2022-10-07T14:44:44.458Z,95820.47
2022-10-07T14:47:20.863Z,95826.78
2022-10-07T14:49:52.835Z,95833.09
2022-10-07T14:52:24.154Z,95835.44
2022-10-07T14:54:52.822Z,95832.56
2022-10-07T14:57:19.659Z,95828.97
2022-10-07T14:59:47.712Z,95819.06
2022-10-07T15:02:14.368Z,95832.00
2022-10-07T15:04:44.172Z,95826.47
2022-10-07T15:07:15.403Z,95816.78
2022-10-07T15:09:43.613Z,95823.97
2022-10-07T15:12:12.365Z,95824.38
2022-10-07T15:14:39.247Z,95828.88
2022-10-07T15:17:06.134Z,95829.47
2022-10-07T15:19:33.440Z,95829.72
2022-10-07T15:22:01.217Z,95820.16
2022-10-07T15:24:29.185Z,95823.78
2022-10-07T15:26:56.480Z,95831.00
2022-10-07T15:29:23.764Z,95828.91
2022-10-07T15:31:52.378Z,95832.69
2022-10-07T15:34:19.425Z,95828.34
2022-10-07T15:36:46.834Z,95829.28
2022-10-07T15:39:13.554Z,95832.06
2022-10-07T15:41:42.577Z,95831.38
2022-10-07T15:44:16.239Z,95825.88
2022-10-07T15:46:44.675Z,95833.91
2022-10-07T15:49:11.863Z,95830.63
2022-10-07T15:51:38.907Z,95836.44
2022-10-07T15:54:06.697Z,95839.94
2022-10-07T15:56:33.719Z,95844.34
2022-10-07T15:59:02.257Z,95841.50
2022-10-07T16:01:31.914Z,95832.84
2022-10-07T16:04:00.755Z,95841.66
2022-10-07T16:06:32.350Z,95840.56
2022-10-07T16:09:00.605Z,95846.41
2022-10-07T16:11:29.475Z,95859.91
2022-10-07T16:13:56.420Z,95858.19
2022-10-07T16:16:25.448Z,95853.97
2022-10-07T16:18:54.761Z,95856.09
2022-10-07T16:21:43.323Z,95856.44
2022-10-07T16:24:17.212Z,95857.03
2022-10-07T16:26:45.406Z,95865.00
2022-10-07T16:29:36.423Z,95868.50
2022-10-07T16:32:04.198Z,95881.28
2022-10-07T16:34:31.266Z,95880.91
2022-10-07T16:36:58.766Z,95874.50
2022-10-07T16:39:25.836Z,95890.00
2022-10-07T16:41:52.810Z,95884.78
2022-10-07T16:44:20.662Z,95885.91
2022-10-07T16:46:48.252Z,95891.69
2022-10-07T16:49:17.780Z,95886.19
2022-10-07T16:51:46.051Z,95889.75
2022-10-07T16:54:16.051Z,95897.34
2022-10-07T16:56:49.106Z,95893.63
2022-10-07T16:59:22.884Z,95893.97
2022-10-07T17:01:52.786Z,95895.16
2022-10-07T17:04:19.740Z,95902.28
2022-10-07T17:06:47.325Z,95889.31
2022-10-07T17:09:14.300Z,95898.84
2022-10-07T17:11:41.954Z,95900.88
2022-10-07T17:14:10.279Z,95914.13
2022-10-07T17:16:42.919Z,95903.59
2022-10-07T17:19:13.042Z,95912.94
2022-10-07T17:21:41.894Z,95900.91
2022-10-07T17:24:09.817Z,95903.72
2022-10-07T17:26:37.626Z,95907.28
2022-10-07T17:29:11.872Z,95911.78
2022-10-07T17:31:42.639Z,95896.69
2022-10-07T17:34:11.704Z,95916.38
2022-10-07T17:36:39.543Z,95914.50
2022-10-07T17:39:06.869Z,95911.56
2022-10-07T17:41:36.153Z,95921.06
2022-10-07T17:44:09.543Z,95912.50
2022-10-07T17:46:39.308Z,95920.06
2022-10-07T17:49:08.076Z,95909.19
2022-10-07T17:51:37.074Z,95911.69
2022-10-07T17:54:05.060Z,95914.69
2022-10-07T17:56:32.551Z,95915.13
2022-10-07T17:58:59.652Z,95914.91
2022-10-07T18:01:28.672Z,95920.34
2022-10-07T18:04:06.946Z,95925.81
2022-10-07T18:06:36.737Z,95923.72
2022-10-07T18:09:08.217Z,95923.00
2022-10-07T18:11:54.103Z,95931.38
2022-10-07T18:14:39.568Z,95934.59
2022-10-07T18:17:07.760Z,95933.63
2022-10-07T18:19:34.459Z,95931.47
2022-10-07T18:22:02.989Z,95937.38
2022-10-07T18:24:29.858Z,95912.44
2022-10-07T18:27:00.700Z,95937.59
2022-10-07T18:29:32.606Z,95936.56
2022-10-07T18:32:00.195Z,95941.28
2022-10-07T18:34:27.536Z,95944.69
2022-10-07T18:36:57.252Z,95940.88
2022-10-07T18:39:29.499Z,95934.91
2022-10-07T18:41:57.233Z,95925.59
2022-10-07T18:44:23.984Z,95934.06
2022-10-07T18:46:51.108Z,95936.63
2022-10-07T18:49:18.072Z,95928.31
2022-10-07T18:51:50.407Z,95929.19
2022-10-07T18:54:18.280Z,95927.25
2022-10-07T18:56:47.710Z,95916.91
2022-10-07T18:59:14.938Z,95924.13
2022-10-07T19:01:42.410Z,95919.94
2022-10-07T19:04:12.011Z,95927.38
2022-10-07T19:06:43.958Z,95923.66
2022-10-07T19:09:14.285Z,95933.84
2022-10-07T19:11:41.321Z,95935.53
2022-10-07T19:14:08.344Z,95931.00
2022-10-07T19:16:38.578Z,95925.59
2022-10-07T19:19:07.033Z,95934.50
2022-10-07T19:21:34.432Z,95944.38
2022-10-07T19:24:02.486Z,95941.94
2022-10-07T19:26:34.034Z,95932.34
2022-10-07T19:29:20.162Z,95923.22
2022-10-07T19:31:49.809Z,95934.75
2022-10-07T19:34:20.347Z,95941.28
2022-10-07T19:36:50.034Z,95935.75
2022-10-07T19:39:22.279Z,95937.56
2022-10-07T19:41:51.068Z,95937.44
2022-10-07T19:44:18.155Z,95937.16
2022-10-07T19:46:44.940Z,95929.25
2022-10-07T19:49:12.036Z,95938.47
2022-10-07T19:51:40.381Z,95925.16
2022-10-07T19:54:10.828Z,95932.41
2022-10-07T19:56:39.113Z,95930.78
2022-10-07T19:59:15.071Z,95936.72
2022-10-07T20:01:44.305Z,95941.41
2022-10-07T20:04:16.336Z,95935.19
2022-10-07T20:06:43.848Z,95938.03
2022-10-07T20:09:15.165Z,95937.81
2022-10-07T20:11:42.406Z,95944.97
2022-10-07T20:14:10.130Z,95953.50
2022-10-07T20:16:38.258Z,95946.53
2022-10-07T20:19:08.077Z,95936.34
2022-10-07T20:21:37.489Z,95939.72
2022-10-07T20:24:05.925Z,95915.19
2022-10-07T20:26:35.913Z,95940.44
2022-10-07T20:29:05.497Z,95944.41
2022-10-07T20:31:35.864Z,95938.91
2022-10-07T20:34:03.394Z,95934.59
2022-10-07T20:36:34.773Z,95936.28
2022-10-07T20:39:25.912Z,95935.63
2022-10-07T20:42:12.387Z,95914.59
2022-10-07T20:44:39.760Z,95937.06
2022-10-07T20:47:08.340Z,95930.47
2022-10-07T20:49:37.374Z,95930.78
2022-10-07T20:52:14.206Z,95933.09
2022-10-07T20:54:41.203Z,95924.28
2022-10-07T20:57:07.984Z,95933.78
2022-10-07T20:59:34.889Z,95904.72
2022-10-07T21:02:04.911Z,95933.72
2022-10-07T21:04:34.239Z,95913.63
2022-10-07T21:07:01.730Z,95916.19
2022-10-07T21:09:28.718Z,95920.53
2022-10-07T21:11:57.815Z,95921.81
2022-10-07T21:14:24.852Z,95928.41
2022-10-07T21:16:53.383Z,95919.41
2022-10-07T21:19:20.576Z,95923.09
2022-10-07T21:21:47.284Z,95928.91
2022-10-07T21:24:14.620Z,95929.03
2022-10-07T21:26:41.517Z,95929.34
2022-10-07T21:29:11.207Z,95933.47
2022-10-07T21:31:38.162Z,95936.63
2022-10-07T21:34:07.769Z,95933.91
2022-10-07T21:36:38.876Z,95924.81
2022-10-07T21:39:06.472Z,95923.22
2022-10-07T21:41:35.963Z,95936.63
2022-10-07T21:44:05.041Z,95928.19
2022-10-07T21:46:33.314Z,95932.16
2022-10-07T21:49:00.230Z,95935.88
2022-10-07T21:51:27.825Z,95927.66
2022-10-07T21:53:58.118Z,95926.53
2022-10-07T21:56:26.860Z,95914.44
2022-10-07T21:58:53.819Z,95917.09
2022-10-07T22:01:23.484Z,95911.78
2022-10-07T22:03:55.857Z,95907.06
2022-10-07T22:06:44.006Z,95904.63
2022-10-07T22:09:12.632Z,95905.44
2022-10-07T22:11:39.419Z,95907.53
2022-10-07T22:14:11.355Z,95893.81
2022-10-07T22:16:39.510Z,95900.69
2022-10-07T22:19:06.556Z,95907.03
2022-10-07T22:21:35.772Z,95900.94
2022-10-07T22:24:07.105Z,95898.00
2022-10-07T22:26:40.645Z,95881.09
2022-10-07T22:29:09.618Z,95895.13
2022-10-07T22:31:37.130Z,95894.06
2022-10-07T22:34:05.290Z,95892.72
2022-10-07T22:36:33.368Z,95886.13
2022-10-07T22:39:00.395Z,95887.97
2022-10-07T22:41:27.358Z,95896.44
2022-10-07T22:43:54.197Z,95865.25
2022-10-07T22:46:26.959Z,95878.50
2022-10-07T22:48:56.307Z,95877.44
2022-10-07T22:51:28.532Z,95885.06
2022-10-07T22:53:57.062Z,95887.44
2022-10-07T22:56:26.312Z,95877.13
2022-10-07T22:58:58.138Z,95879.81
2022-10-07T23:01:25.993Z,95881.13
2022-10-07T23:03:54.740Z,95883.78
2022-10-07T23:06:22.483Z,95880.59
2022-10-07T23:08:49.240Z,95874.78
2022-10-07T23:11:19.231Z,95867.34
2022-10-07T23:13:46.247Z,95868.41
2022-10-07T23:16:15.768Z,95863.41
2022-10-07T23:18:44.810Z,95858.88
2022-10-07T23:21:19.806Z,95865.47
2022-10-07T23:23:49.336Z,95863.41
2022-10-07T23:26:19.067Z,95870.50
2022-10-07T23:28:47.224Z,95867.88
2022-10-07T23:31:14.949Z,95863.41
2022-10-07T23:33:41.896Z,95870.03
2022-10-07T23:36:10.950Z,95845.72
2022-10-07T23:38:39.563Z,95854.16
2022-10-07T23:41:07.073Z,95856.78
2022-10-07T23:43:34.564Z,95858.41
2022-10-07T23:46:02.778Z,95857.31
2022-10-07T23:48:38.919Z,95834.34
2022-10-07T23:51:06.992Z,95849.69
2022-10-07T23:53:34.862Z,95856.53
2022-10-07T23:56:02.228Z,95848.84
2022-10-07T23:58:30.641Z,95840.44
